Time;durP1;ratioP1;P1;durP2;ratioP2;P2;SDS_P1;SDS_P2;PMS_P1;PMS_P2;Temp;Humidity;BMP_temperature;BMP_pressure;BME280_temperature;BME280_humidity;BME280_pressure;Samples;Min_cycle;Max_cycle;Signal;HPM_P1;HPM_P2
2022/05/12 00:00:14;;;;;;;10.75;3.65;;;17.60;62.30;;;;;;2373166;56;21055;-75
2022/05/12 00:02:42;;;;;;;8.38;2.75;;;17.60;62.20;;;;;;2374419;56;21040;-75
2022/05/12 00:05:10;;;;;;;12.70;3.20;;;17.60;62.10;;;;;;2374020;56;21075;-75
2022/05/12 00:07:37;;;;;;;6.95;2.78;;;17.60;61.90;;;;;;2626642;52;21055;-75
2022/05/12 00:10:08;;;;;;;9.88;3.05;;;17.60;61.90;;;;;;2374276;56;21038;-75
2022/05/12 00:12:36;;;;;;;10.52;2.95;;;17.60;61.90;;;;;;2373068;56;21071;-75
2022/05/12 00:15:06;;;;;;;9.00;2.45;;;17.60;61.50;;;;;;2626636;52;21039;-75
2022/05/12 00:17:34;;;;;;;10.52;2.85;;;17.60;61.10;;;;;;2373246;56;21114;-75
2022/05/12 00:20:01;;;;;;;11.60;3.22;;;17.50;61.10;;;;;;2374241;56;21537;-75
2022/05/12 00:22:28;;;;;;;8.07;2.92;;;17.50;61.20;;;;;;2627205;52;21043;-75
2022/05/12 00:24:56;;;;;;;9.98;2.90;;;17.50;61.30;;;;;;2373866;56;21046;-74
2022/05/12 00:27:23;;;;;;;3.87;2.17;;;17.50;61.20;;;;;;2373658;56;21541;-75
2022/05/12 00:29:50;;;;;;;5.68;2.92;;;17.50;61.20;;;;;;2372881;56;21565;-75
2022/05/12 00:32:17;;;;;;;12.27;3.72;;;17.50;61.20;;;;;;2373987;56;21529;-74
2022/05/12 00:34:45;;;;;;;7.05;2.85;;;17.50;61.50;;;;;;2626932;52;21679;-75
2022/05/12 00:37:12;;;;;;;11.23;3.37;;;17.40;61.70;;;;;;2373899;56;21043;-76
2022/05/12 00:39:39;;;;;;;10.32;3.45;;;17.40;62.10;;;;;;2374260;56;21047;-75
2022/05/12 00:42:07;;;;;;;8.40;2.62;;;17.40;62.50;;;;;;2373656;56;21407;-76
2022/05/12 00:44:34;;;;;;;11.05;3.35;;;17.40;62.80;;;;;;2373574;56;21046;-75
2022/05/12 00:47:02;;;;;;;10.40;2.97;;;17.40;63.30;;;;;;2373064;56;21058;-75
2022/05/12 00:49:33;;;;;;;12.07;3.40;;;17.40;64.10;;;;;;2374003;56;21110;-75
2022/05/12 00:52:06;;;;;;;14.30;4.03;;;17.40;63.30;;;;;;2374409;56;21047;-75
2022/05/12 00:54:38;;;;;;;14.90;3.47;;;17.40;63.30;;;;;;2627897;52;21034;-76
2022/05/12 00:57:10;;;;;;;11.65;3.45;;;17.30;63.20;;;;;;2373868;56;21035;-75
2022/05/12 00:59:38;;;;;;;13.50;4.10;;;17.40;63.30;;;;;;2374124;56;21051;-75
2022/05/12 01:02:12;;;;;;;8.93;3.10;;;17.40;63.50;;;;;;2373658;56;21083;-75
2022/05/12 01:04:41;;;;;;;10.13;3.22;;;17.30;63.80;;;;;;2374225;56;21039;-74
2022/05/12 01:07:09;;;;;;;10.65;3.15;;;17.30;64.00;;;;;;2373576;56;21134;-74
2022/05/12 01:09:36;;;;;;;9.45;2.97;;;17.30;64.10;;;;;;2627184;52;21158;-75
2022/05/12 01:12:05;;;;;;;10.60;3.42;;;17.30;64.40;;;;;;2374495;56;21106;-74
2022/05/12 01:14:32;;;;;;;10.30;3.60;;;17.30;64.40;;;;;;2374099;56;21039;-75
2022/05/12 01:17:03;;;;;;;15.70;3.42;;;17.30;64.20;;;;;;2373861;56;21043;-74
2022/05/12 01:19:33;;;;;;;12.35;4.28;;;17.30;64.10;;;;;;2373576;56;21185;-74
2022/05/12 01:22:01;;;;;;;10.38;3.17;;;17.30;64.30;;;;;;2374327;56;21078;-74
2022/05/12 01:24:34;;;;;;;14.55;3.40;;;17.30;64.50;;;;;;2374133;56;21028;-74
2022/05/12 01:27:19;;;;;;;10.77;3.05;;;17.30;64.40;;;;;;2374168;56;21117;-74
2022/05/12 01:29:48;;;;;;;8.23;3.15;;;17.30;64.40;;;;;;2374314;56;21035;-74
2022/05/12 01:32:15;;;;;;;11.82;3.03;;;17.30;64.50;;;;;;2373381;56;21142;-75
2022/05/12 01:34:43;;;;;;;12.65;3.37;;;17.20;64.60;;;;;;2373918;56;21618;-75
2022/05/12 01:37:10;;;;;;;11.25;3.70;;;17.20;64.80;;;;;;2373982;56;21055;-75
2022/05/12 01:39:37;;;;;;;13.10;4.28;;;17.30;64.80;;;;;;2373891;56;21108;-74
2022/05/12 01:42:07;;;;;;;12.10;4.28;;;17.30;64.50;;;;;;2374307;56;21039;-75
2022/05/12 01:44:35;;;;;;;10.65;3.83;;;17.20;64.80;;;;;;2374458;56;21031;-75
2022/05/12 01:49:37;;;;;;;12.40;4.20;;;17.30;65.00;;;;;;2309473;57;27901;-74
2022/05/12 01:52:07;;;;;;;12.00;3.80;;;16.90;68.00;;;;;;2347182;57;21038;-75
2022/05/12 01:54:34;;;;;;;12.82;4.25;;;17.00;67.10;;;;;;2347905;57;21033;-75
2022/05/12 01:57:02;;;;;;;10.93;4.22;;;17.00;66.00;;;;;;2347489;57;21097;-74
2022/05/12 01:59:30;;;;;;;9.50;3.62;;;17.00;65.60;;;;;;2347470;57;21050;-74
2022/05/12 02:01:57;;;;;;;8.07;3.72;;;17.00;66.00;;;;;;2348052;57;21117;-74
2022/05/12 02:04:24;;;;;;;6.22;2.75;;;16.90;66.00;;;;;;2346708;57;22666;-74
2022/05/12 02:06:51;;;;;;;7.55;2.95;;;16.90;65.40;;;;;;2347329;57;21121;-74
2022/05/12 02:09:19;;;;;;;10.45;3.62;;;16.90;65.70;;;;;;2347683;57;21049;-74
2022/05/12 02:11:46;;;;;;;7.05;3.03;;;16.90;66.00;;;;;;2347417;57;21098;-74
2022/05/12 02:14:14;;;;;;;6.12;2.67;;;16.90;66.40;;;;;;2347746;57;21104;-75
2022/05/12 02:16:42;;;;;;;6.05;2.92;;;16.80;66.10;;;;;;2347156;57;21049;-74
2022/05/12 02:19:11;;;;;;;6.43;2.72;;;16.80;66.40;;;;;;2347788;57;21034;-74
2022/05/12 02:21:38;;;;;;;8.18;3.15;;;16.80;66.00;;;;;;2347151;57;21041;-75
2022/05/12 02:24:07;;;;;;;8.70;3.78;;;16.90;66.00;;;;;;2593573;53;21092;-75
2022/05/12 02:26:34;;;;;;;6.93;2.62;;;16.90;66.00;;;;;;2347124;57;21049;-74
2022/05/12 02:29:03;;;;;;;5.47;2.55;;;16.80;66.10;;;;;;2347523;57;21120;-74
2022/05/12 02:31:31;;;;;;;9.82;3.05;;;16.90;66.00;;;;;;2595057;53;21089;-74
2022/05/12 02:33:59;;;;;;;5.45;3.37;;;16.90;66.30;;;;;;2347448;57;21038;-74
2022/05/12 02:36:26;;;;;;;10.30;3.42;;;16.90;66.30;;;;;;2347245;57;21081;-74
2022/05/12 02:38:53;;;;;;;6.25;3.00;;;16.90;66.50;;;;;;2347628;57;21603;-74
2022/05/12 02:41:20;;;;;;;4.10;2.50;;;16.80;66.60;;;;;;2346903;57;21042;-75
2022/05/12 02:43:48;;;;;;;8.00;2.35;;;16.70;67.00;;;;;;2347536;57;21635;-75
2022/05/12 02:46:16;;;;;;;3.92;2.42;;;16.60;67.20;;;;;;2347304;57;21089;-74
2022/05/12 02:48:44;;;;;;;7.35;2.87;;;16.60;67.80;;;;;;2347445;57;21113;-74
2022/05/12 02:51:12;;;;;;;10.43;3.40;;;16.50;68.10;;;;;;2347788;57;21117;-74
2022/05/12 02:53:41;;;;;;;8.30;4.03;;;16.40;68.00;;;;;;2347419;57;21085;-75
2022/05/12 02:56:09;;;;;;;11.50;4.72;;;16.40;68.80;;;;;;2594414;53;21046;-74
2022/05/12 02:58:38;;;;;;;9.30;3.78;;;16.30;69.10;;;;;;2347041;57;21070;-74
2022/05/12 03:01:06;;;;;;;11.30;4.37;;;16.20;69.60;;;;;;2346023;57;21030;-75
2022/05/12 03:03:33;;;;;;;10.32;3.37;;;16.10;69.90;;;;;;2346814;57;21022;-74
2022/05/12 03:06:00;;;;;;;8.63;2.40;;;16.10;69.20;;;;;;2346074;57;21054;-75
2022/05/12 03:08:28;;;;;;;4.12;1.75;;;15.90;68.70;;;;;;2346576;57;21040;-75
2022/05/12 03:10:55;;;;;;;2.25;1.17;;;15.70;68.20;;;;;;2346517;57;21597;-74
2022/05/12 03:13:23;;;;;;;4.00;1.15;;;15.50;67.30;;;;;;2346508;57;21619;-75
2022/05/12 03:15:51;;;;;;;4.07;1.23;;;15.30;67.70;;;;;;2345653;57;21125;-75
2022/05/12 03:18:18;;;;;;;3.03;1.23;;;15.20;68.20;;;;;;2346600;57;21093;-75
2022/05/12 03:20:46;;;;;;;1.52;1.00;;;15.20;68.40;;;;;;2593660;53;21123;-75
2022/05/12 03:23:14;;;;;;;2.08;1.40;;;15.20;68.30;;;;;;2346403;57;21364;-74
2022/05/12 03:25:43;;;;;;;4.20;1.20;;;15.10;69.50;;;;;;2346551;57;21089;-74
2022/05/12 03:28:11;;;;;;;1.23;1.05;;;15.00;69.20;;;;;;2346933;57;21050;-75
2022/05/12 03:30:38;;;;;;;2.22;1.10;;;14.90;69.30;;;;;;2346329;57;21041;-74
2022/05/12 03:33:06;;;;;;;3.37;1.27;;;14.90;69.50;;;;;;2346655;57;21108;-74
2022/05/12 03:35:34;;;;;;;2.95;0.98;;;14.80;69.80;;;;;;2346375;57;21124;-74
2022/05/12 03:38:01;;;;;;;2.85;1.67;;;14.80;70.10;;;;;;2346747;57;21106;-75
2022/05/12 03:40:30;;;;;;;3.92;1.52;;;14.70;70.40;;;;;;2345270;57;21667;-74
2022/05/12 03:42:58;;;;;;;1.90;1.30;;;14.60;70.50;;;;;;2346768;57;21038;-75
2022/05/12 03:45:26;;;;;;;3.90;1.60;;;14.70;70.70;;;;;;2593517;52;21588;-74
2022/05/12 03:47:55;;;;;;;2.05;1.60;;;14.70;70.90;;;;;;2345987;57;21611;-74
2022/05/12 03:50:25;;;;;;;3.20;1.65;;;14.70;70.90;;;;;;2346653;57;21109;-74
2022/05/12 03:52:54;;;;;;;4.85;2.08;;;14.60;70.90;;;;;;2346606;57;21050;-75
2022/05/12 03:55:24;;;;;;;3.62;1.48;;;14.60;70.90;;;;;;2345451;57;21066;-74
2022/05/12 03:57:55;;;;;;;2.50;1.50;;;14.60;71.00;;;;;;2346408;57;21053;-74
2022/05/12 04:00:25;;;;;;;2.80;2.12;;;14.60;70.90;;;;;;2346124;57;21042;-74
2022/05/12 04:02:53;;;;;;;5.20;2.30;;;14.60;71.00;;;;;;2346903;57;21085;-74
2022/05/12 04:05:20;;;;;;;5.62;2.40;;;14.60;71.00;;;;;;2593200;53;21089;-74
2022/05/12 04:07:48;;;;;;;4.22;2.00;;;14.40;71.00;;;;;;2346649;57;21049;-74
2022/05/12 04:12:52;;;;;;;3.08;2.20;;;14.40;72.10;;;;;;2335202;57;27837;-73
2022/05/12 04:15:21;;;;;;;5.32;2.33;;;14.30;73.90;;;;;;2346844;57;21073;-77
2022/05/12 04:17:57;;;;;;;5.47;2.17;;;14.40;72.50;;;;;;2364943;56;21107;-74
2022/05/12 04:20:26;;;;;;;3.15;1.85;;;14.40;71.80;;;;;;2374436;56;21102;-73
2022/05/12 04:22:54;;;;;;;2.80;2.00;;;14.50;71.50;;;;;;2374942;56;21051;-75
2022/05/12 04:25:22;;;;;;;7.00;1.95;;;14.60;70.90;;;;;;2374400;56;21039;-74
2022/05/12 04:27:50;;;;;;;2.62;1.95;;;14.50;70.70;;;;;;2374365;56;21055;-75
2022/05/12 04:30:20;;;;;;;6.12;2.08;;;14.60;70.70;;;;;;2626224;52;21233;-75
2022/05/12 04:32:48;;;;;;;3.67;2.50;;;14.60;70.60;;;;;;2627720;52;21103;-74
2022/05/12 04:35:15;;;;;;;6.05;2.42;;;14.60;70.90;;;;;;2372251;56;21102;-76
2022/05/12 04:37:45;;;;;;;6.80;2.20;;;14.50;70.10;;;;;;2373910;56;21086;-75
2022/05/12 04:40:16;;;;;;;4.05;3.22;;;14.50;69.80;;;;;;2374701;56;21102;-76
2022/05/12 04:42:44;;;;;;;9.40;3.12;;;14.60;69.80;;;;;;2374602;56;21019;-76
2022/05/12 04:45:13;;;;;;;8.50;3.40;;;14.50;69.30;;;;;;2372939;56;21139;-76
2022/05/12 04:47:42;;;;;;;5.15;3.08;;;14.50;69.20;;;;;;2374164;56;21126;-76
2022/05/12 04:50:13;;;;;;;9.52;3.00;;;14.50;69.50;;;;;;2599596;52;21126;-75
2022/05/12 04:52:40;;;;;;;11.10;3.20;;;14.50;69.60;;;;;;2385406;56;21097;-76
2022/05/12 04:55:12;;;;;;;6.93;2.65;;;14.60;69.80;;;;;;2386096;56;21115;-77
2022/05/12 05:00:19;;;;;;;6.35;3.20;;;14.50;69.00;;;;;;2327878;57;22569;-76
2022/05/12 05:02:47;;;;;;;11.63;3.92;;;14.50;69.00;;;;;;2346728;57;21037;-76
2022/05/12 05:05:14;;;;;;;4.60;3.03;;;14.50;69.10;;;;;;2346619;57;21154;-76
2022/05/12 05:07:41;;;;;;;11.82;3.42;;;14.50;69.20;;;;;;2614234;52;21075;-80
2022/05/12 05:10:12;;;;;;;11.43;3.35;;;14.50;68.90;;;;;;2375672;56;21055;-79
2022/05/12 05:12:39;;;;;;;10.80;3.50;;;14.50;69.10;;;;;;2373830;56;21174;-78
2022/05/12 05:15:10;;;;;;;7.65;3.40;;;14.50;69.10;;;;;;2373966;56;21035;-75
2022/05/12 05:17:38;;;;;;;7.72;3.72;;;14.40;68.90;;;;;;2628186;52;21043;-74
2022/05/12 05:20:09;;;;;;;8.63;3.28;;;14.50;68.90;;;;;;2373892;56;21090;-75
2022/05/12 05:22:37;;;;;;;9.90;3.40;;;14.50;68.50;;;;;;2373758;56;21031;-75
2022/05/12 05:25:06;;;;;;;7.87;2.65;;;14.50;68.80;;;;;;2374583;56;21129;-75
2022/05/12 05:27:34;;;;;;;6.28;2.65;;;14.50;69.10;;;;;;2628307;52;21525;-76
2022/05/12 05:30:01;;;;;;;9.00;3.20;;;14.60;69.10;;;;;;2627167;52;21114;-75
2022/05/12 05:32:29;;;;;;;9.77;3.45;;;14.60;68.90;;;;;;2373929;56;21038;-76
2022/05/12 05:34:56;;;;;;;8.70;3.58;;;14.70;68.70;;;;;;2374397;56;21106;-76
2022/05/12 05:37:24;;;;;;;8.35;2.42;;;14.70;69.20;;;;;;2627557;52;21067;-77
2022/05/12 05:39:51;;;;;;;17.35;3.15;;;14.80;69.20;;;;;;2374702;56;21050;-76
2022/05/12 05:42:20;;;;;;;9.35;3.17;;;14.80;68.30;;;;;;2373582;56;21031;-77
2022/05/12 05:44:48;;;;;;;6.43;2.97;;;14.80;68.00;;;;;;2374888;56;21090;-76
2022/05/12 05:47:15;;;;;;;10.95;2.87;;;14.80;67.50;;;;;;2627797;52;21093;-76
2022/05/12 05:49:43;;;;;;;5.32;2.78;;;14.80;67.30;;;;;;2629013;52;21592;-76
2022/05/12 05:54:57;;;;;;;5.95;2.90;;;14.80;67.00;;;;;;2374399;56;21006;-76
2022/05/12 05:57:25;;;;;;;5.35;2.70;;;14.80;67.10;;;;;;2374354;56;22170;-76
2022/05/12 05:59:55;;;;;;;7.78;2.87;;;14.90;66.50;;;;;;2374606;56;21118;-76
2022/05/12 06:02:23;;;;;;;4.55;2.55;;;14.90;66.30;;;;;;2374170;56;21558;-76
2022/05/12 06:04:50;;;;;;;6.87;2.60;;;15.00;66.10;;;;;;2375145;56;21096;-76
2022/05/12 06:07:18;;;;;;;12.55;3.60;;;14.90;66.20;;;;;;2374670;56;21126;-76
2022/05/12 06:09:46;;;;;;;8.85;2.90;;;14.90;66.20;;;;;;2375131;56;21062;-77
2022/05/12 06:12:13;;;;;;;8.10;2.97;;;14.90;65.80;;;;;;2373957;56;21046;-75
2022/05/12 06:14:40;;;;;;;7.82;2.83;;;14.90;65.70;;;;;;2374323;56;21050;-76
2022/05/12 06:17:08;;;;;;;8.73;3.35;;;15.00;66.00;;;;;;2627133;52;21066;-77
2022/05/12 06:19:36;;;;;;;10.27;3.40;;;15.00;65.60;;;;;;2626354;52;21042;-75
2022/05/12 06:22:04;;;;;;;7.60;2.30;;;15.00;65.70;;;;;;2627564;52;21041;-76
2022/05/12 06:24:31;;;;;;;7.43;2.95;;;15.00;65.70;;;;;;2374263;56;21134;-76
2022/05/12 06:26:58;;;;;;;12.45;2.87;;;15.10;65.90;;;;;;2627286;52;21134;-76
2022/05/12 06:29:25;;;;;;;8.82;2.55;;;15.10;65.50;;;;;;2374085;56;21043;-75
2022/05/12 06:31:53;;;;;;;8.07;2.97;;;15.10;65.30;;;;;;2374008;56;21135;-75
2022/05/12 06:34:20;;;;;;;9.38;2.65;;;15.10;65.20;;;;;;2374231;56;21051;-76
2022/05/12 06:36:47;;;;;;;9.35;2.58;;;15.10;65.30;;;;;;2372928;56;21130;-76
2022/05/12 06:39:14;;;;;;;6.68;2.15;;;15.10;65.50;;;;;;2627134;52;21118;-76
2022/05/12 06:41:42;;;;;;;7.25;2.62;;;15.20;65.70;;;;;;2374223;56;21097;-76
2022/05/12 06:44:10;;;;;;;4.40;2.30;;;15.20;65.40;;;;;;2627033;52;21133;-76
2022/05/12 06:46:38;;;;;;;10.80;2.53;;;15.20;65.80;;;;;;2373747;56;21125;-76
2022/05/12 06:49:05;;;;;;;4.53;2.10;;;15.30;65.70;;;;;;2373833;56;21423;-76
2022/05/12 06:51:33;;;;;;;6.87;2.22;;;15.30;65.70;;;;;;2374166;56;21113;-76
2022/05/12 06:54:00;;;;;;;15.20;2.80;;;15.40;65.40;;;;;;2374038;56;21059;-76
2022/05/12 06:56:28;;;;;;;9.20;1.95;;;15.40;65.50;;;;;;2373723;56;21389;-75
2022/05/12 06:58:56;;;;;;;8.05;2.12;;;15.40;65.30;;;;;;2373773;56;21035;-76
2022/05/12 07:01:24;;;;;;;6.25;2.25;;;15.50;65.00;;;;;;2374374;56;21174;-76
2022/05/12 07:03:53;;;;;;;8.68;1.92;;;15.50;64.50;;;;;;2373702;56;21114;-76
2022/05/12 07:06:20;;;;;;;7.85;2.50;;;15.60;64.60;;;;;;2373921;56;21055;-76
2022/05/12 07:08:47;;;;;;;10.18;3.17;;;15.60;65.40;;;;;;2374062;56;21035;-76
2022/05/12 07:11:15;;;;;;;4.72;1.98;;;15.60;64.90;;;;;;2374359;56;21134;-76
2022/05/12 07:13:42;;;;;;;7.80;2.30;;;15.70;64.00;;;;;;2373713;56;21042;-75
2022/05/12 07:16:10;;;;;;;6.45;2.58;;;15.80;63.90;;;;;;2373946;56;21530;-76
2022/05/12 07:18:38;;;;;;;5.60;1.73;;;15.80;63.10;;;;;;2373570;56;21154;-76
2022/05/12 07:26:40;;;;;;;5.97;2.40;;;15.90;63.10;;;;;;2373256;56;21023;-77
2022/05/12 07:29:10;;;;;;;7.45;2.17;;;16.00;62.50;;;;;;2374167;56;21046;-77
2022/05/12 07:31:38;;;;;;;7.07;1.87;;;16.00;62.30;;;;;;2374019;56;21035;-76
2022/05/12 07:34:05;;;;;;;9.60;2.30;;;16.10;62.40;;;;;;2374098;56;21039;-76
2022/05/12 07:36:35;;;;;;;6.15;1.87;;;16.10;61.80;;;;;;2373462;56;21058;-76
2022/05/12 07:39:03;;;;;;;7.35;1.98;;;16.20;61.80;;;;;;2627009;52;21038;-77
2022/05/12 07:41:31;;;;;;;12.80;1.70;;;16.20;62.00;;;;;;2374436;56;21185;-77
2022/05/12 07:44:00;;;;;;;4.30;1.85;;;16.30;61.90;;;;;;2627550;52;21115;-77
2022/05/12 07:46:28;;;;;;;5.85;1.77;;;16.40;61.70;;;;;;2626781;52;21054;-76
2022/05/12 07:48:57;;;;;;;6.87;1.73;;;16.40;61.20;;;;;;2627277;52;21023;-76
2022/05/12 07:51:24;;;;;;;4.95;2.03;;;16.40;60.90;;;;;;2373663;56;21059;-77
2022/05/12 07:53:52;;;;;;;4.12;1.83;;;16.40;60.60;;;;;;2627449;52;21054;-76
2022/05/12 07:56:22;;;;;;;7.03;2.00;;;16.40;60.30;;;;;;2373697;56;21058;-77
2022/05/12 07:58:49;;;;;;;5.75;2.45;;;16.40;60.60;;;;;;2374216;56;21155;-77
2022/05/12 08:01:18;;;;;;;6.20;2.50;;;16.40;60.80;;;;;;2374180;56;21062;-76
2022/05/12 08:03:45;;;;;;;5.82;1.80;;;16.50;61.00;;;;;;2374077;56;21055;-77
2022/05/12 08:06:14;;;;;;;7.97;1.73;;;16.50;60.20;;;;;;2374049;56;21049;-76
2022/05/12 08:08:42;;;;;;;4.70;1.80;;;16.50;59.60;;;;;;2373253;56;21042;-76
2022/05/12 08:11:10;;;;;;;4.90;1.50;;;16.60;59.70;;;;;;2627396;52;21102;-76
2022/05/12 08:13:37;;;;;;;3.28;1.65;;;16.60;59.80;;;;;;2373666;56;21087;-77
2022/05/12 08:16:07;;;;;;;3.08;1.55;;;16.50;59.10;;;;;;2373807;56;21372;-76
2022/05/12 08:18:35;;;;;;;4.78;1.75;;;16.60;59.10;;;;;;2374154;56;21054;-76
2022/05/12 08:21:03;;;;;;;3.45;1.50;;;16.70;59.20;;;;;;2374121;56;21042;-76
2022/05/12 08:23:31;;;;;;;5.12;1.73;;;16.80;59.10;;;;;;2374059;56;21059;-76
2022/05/12 08:25:58;;;;;;;4.55;1.58;;;16.90;59.30;;;;;;2373054;56;21059;-77
2022/05/12 08:28:26;;;;;;;5.10;1.60;;;16.90;58.60;;;;;;2627077;52;21035;-77
2022/05/12 08:30:54;;;;;;;3.58;1.40;;;17.00;58.40;;;;;;2374023;56;21086;-76
2022/05/12 08:33:22;;;;;;;6.20;1.40;;;16.90;57.90;;;;;;2374315;56;21044;-76
2022/05/12 08:35:50;;;;;;;1.50;1.08;;;16.90;57.40;;;;;;2373205;56;21030;-77
2022/05/12 08:38:19;;;;;;;4.90;1.50;;;17.00;57.80;;;;;;2374038;56;21050;-76
2022/05/12 08:41:07;;;;;;;3.95;1.30;;;17.00;57.50;;;;;;2374053;56;21074;-76
2022/05/12 08:43:44;;;;;;;3.15;1.30;;;17.10;57.50;;;;;;2374200;56;21034;-76
2022/05/12 08:46:14;;;;;;;3.55;1.55;;;17.20;57.00;;;;;;2373306;56;21058;-77
2022/05/12 08:48:44;;;;;;;8.45;2.03;;;17.20;57.70;;;;;;2374228;56;21533;-77
2022/05/12 08:51:15;;;;;;;2.12;1.30;;;17.20;56.50;;;;;;2373697;56;21102;-76
2022/05/12 08:53:49;;;;;;;2.28;1.20;;;17.20;55.90;;;;;;2374200;56;21055;-76
2022/05/12 08:56:20;;;;;;;7.22;1.73;;;17.20;56.10;;;;;;2373536;56;21107;-76
2022/05/12 08:58:49;;;;;;;2.10;1.30;;;17.20;56.50;;;;;;2374232;56;21133;-76
2022/05/12 09:01:21;;;;;;;8.80;1.80;;;17.30;56.70;;;;;;2373957;56;21042;-77
2022/05/12 09:04:03;;;;;;;8.25;1.55;;;17.30;56.20;;;;;;2373954;56;21058;-77
2022/05/12 09:06:35;;;;;;;5.40;1.62;;;17.30;56.10;;;;;;2373266;56;21062;-76
2022/05/12 09:09:09;;;;;;;8.00;1.60;;;17.30;55.90;;;;;;2373967;56;21121;-77
2022/05/12 09:11:44;;;;;;;6.65;1.95;;;17.40;56.00;;;;;;2371852;56;21051;-77
2022/05/12 09:14:15;;;;;;;3.97;1.60;;;17.30;56.10;;;;;;2372085;56;21191;-76
2022/05/12 09:16:43;;;;;;;5.97;1.80;;;17.40;56.40;;;;;;2373412;56;21537;-78
2022/05/12 09:19:16;;;;;;;5.80;1.52;;;17.40;55.80;;;;;;2627226;52;21062;-77
2022/05/12 09:21:43;;;;;;;6.30;1.80;;;17.40;55.40;;;;;;2373069;56;21094;-76
2022/05/12 09:24:11;;;;;;;5.35;1.35;;;17.40;55.50;;;;;;2373959;56;21054;-77
2022/05/12 09:26:42;;;;;;;4.60;1.48;;;17.50;55.70;;;;;;2373285;56;21034;-76
2022/05/12 09:29:14;;;;;;;5.75;2.00;;;17.40;55.10;;;;;;2374079;56;21118;-76
2022/05/12 09:31:43;;;;;;;6.68;1.45;;;17.50;55.30;;;;;;2373524;56;21201;-77
2022/05/12 09:34:29;;;;;;;4.75;1.40;;;17.60;55.20;;;;;;2373987;56;21185;-76
2022/05/12 09:36:56;;;;;;;4.70;1.23;;;17.60;55.20;;;;;;2372653;56;21121;-77
2022/05/12 09:39:37;;;;;;;5.68;1.75;;;17.60;54.70;;;;;;2627423;52;21043;-76
2022/05/12 09:42:09;;;;;;;4.32;1.60;;;17.60;54.70;;;;;;2374248;56;21566;-76
2022/05/12 09:44:36;;;;;;;3.85;1.20;;;17.70;54.90;;;;;;2373889;56;21113;-75
2022/05/12 09:47:07;;;;;;;3.10;1.33;;;17.70;54.60;;;;;;2373203;56;21078;-76
2022/05/12 09:49:38;;;;;;;6.62;1.40;;;17.70;53.80;;;;;;2374537;56;21131;-76
2022/05/12 09:52:28;;;;;;;2.42;1.40;;;17.80;54.30;;;;;;2373998;56;21158;-76
2022/05/12 09:55:18;;;;;;;2.78;1.05;;;17.80;53.20;;;;;;2627523;52;21046;-77
2022/05/12 09:57:55;;;;;;;4.25;1.25;;;17.80;53.30;;;;;;2374180;56;21389;-76
2022/05/12 10:09:08;;;;;;;3.70;1.10;;;18.10;52.40;;;;;;2319836;58;21518;-75
2022/05/12 10:11:42;;;;;;;2.62;1.10;;;18.10;52.30;;;;;;2319993;58;21074;-75
2022/05/12 10:14:25;;;;;;;3.42;1.23;;;18.20;52.40;;;;;;2319675;58;21298;-75
2022/05/12 10:16:56;;;;;;;2.73;1.03;;;18.20;52.60;;;;;;2561154;53;21135;-74
2022/05/12 10:19:25;;;;;;;8.82;1.37;;;18.30;52.40;;;;;;2319914;58;21067;-75
2022/05/12 10:22:05;;;;;;;3.30;1.30;;;18.40;51.80;;;;;;2320562;58;21100;-76
2022/05/12 10:24:42;;;;;;;3.67;1.25;;;18.40;51.30;;;;;;2320613;58;21127;-76
2022/05/12 10:27:27;;;;;;;3.28;1.12;;;18.40;51.00;;;;;;2320087;58;21071;-76
2022/05/12 10:30:04;;;;;;;4.45;1.12;;;18.50;50.90;;;;;;2320401;58;21143;-75
2022/05/12 10:32:56;;;;;;;2.45;0.93;;;18.50;50.50;;;;;;2319816;58;21071;-76
2022/05/12 10:35:32;;;;;;;3.67;1.12;;;18.60;50.30;;;;;;2319297;58;21099;-77
2022/05/12 10:38:05;;;;;;;3.58;1.00;;;18.70;50.40;;;;;;2319565;58;21123;-77
2022/05/12 10:40:41;;;;;;;3.25;1.30;;;18.70;49.40;;;;;;2320364;58;21107;-77
2022/05/12 10:43:42;;;;;;;3.87;1.25;;;18.60;48.80;;;;;;2559295;53;21558;-76
2022/05/12 10:46:15;;;;;;;1.62;0.68;;;18.50;48.90;;;;;;2319505;58;21052;-76
2022/05/12 10:48:50;;;;;;;3.40;1.05;;;18.50;49.20;;;;;;2319265;58;21064;-76
2022/05/12 10:51:29;;;;;;;3.35;0.93;;;18.50;49.30;;;;;;2279912;54;21071;-77
2022/05/12 10:54:10;;;;;;;1.62;0.90;;;18.50;49.30;;;;;;2266926;59;21066;-77
2022/05/12 10:56:46;;;;;;;3.03;1.02;;;18.50;48.80;;;;;;2269543;58;21155;-77
2022/05/12 10:59:42;;;;;;;4.20;1.00;;;18.70;49.30;;;;;;2528397;55;21131;-77
2022/05/12 11:02:17;;;;;;;5.60;1.10;;;18.70;49.20;;;;;;2291972;58;21124;-77
2022/05/12 11:04:49;;;;;;;2.55;0.75;;;18.80;49.30;;;;;;2292930;58;21112;-77
2022/05/12 11:07:25;;;;;;;3.55;1.30;;;19.00;49.70;;;;;;2292118;58;21112;-77
2022/05/12 11:12:44;;;;;;;2.05;0.90;;;19.50;48.40;;;;;;2354990;57;22046;-76
2022/05/12 11:15:17;;;;;;;3.08;1.30;;;19.70;48.00;;;;;;2346942;57;21069;-77
2022/05/12 11:17:51;;;;;;;3.75;1.45;;;19.70;47.70;;;;;;2363567;56;21118;-76
2022/05/12 11:20:25;;;;;;;1.98;0.80;;;19.70;46.70;;;;;;2374332;56;21102;-76
2022/05/12 11:23:12;;;;;;;1.92;0.70;;;19.80;47.00;;;;;;2374506;56;21043;-76
2022/05/12 11:25:51;;;;;;;4.12;0.85;;;19.70;45.90;;;;;;2373499;56;21126;-76
2022/05/12 11:31:21;;;;;;;2.28;1.00;;;19.90;46.70;;;;;;2374045;56;20984;-76
2022/05/12 11:33:52;;;;;;;2.67;1.17;;;20.10;46.40;;;;;;2373914;56;21079;-76
2022/05/12 11:36:20;;;;;;;2.92;1.00;;;20.20;45.60;;;;;;2374121;56;21138;-77
2022/05/12 11:38:53;;;;;;;5.10;1.50;;;20.30;44.90;;;;;;2372434;56;21123;-76
2022/05/12 11:41:40;;;;;;;5.97;0.82;;;20.40;45.40;;;;;;2627749;52;21023;-76
2022/05/12 11:44:28;;;;;;;4.97;1.05;;;20.40;44.70;;;;;;2374788;56;21035;-76
2022/05/12 11:47:31;;;;;;;4.45;1.10;;;20.40;43.90;;;;;;2373982;56;21047;-75
2022/05/12 11:50:16;;;;;;;4.55;0.98;;;20.50;43.90;;;;;;2352789;56;21069;-76
2022/05/12 11:52:58;;;;;;;3.60;1.15;;;20.70;45.50;;;;;;2374183;56;21079;-76
2022/05/12 11:55:28;;;;;;;5.03;0.85;;;20.80;42.80;;;;;;2374377;56;21047;-76
2022/05/12 11:58:03;;;;;;;4.65;0.93;;;20.90;42.50;;;;;;2373483;56;21173;-77
2022/05/12 12:00:53;;;;;;;3.67;1.15;;;21.10;41.90;;;;;;2374612;56;21110;-77
2022/05/12 12:06:46;;;;;;;2.25;0.77;;;21.10;40.80;;;;;;2324850;57;22543;-76
2022/05/12 12:09:50;;;;;;;2.50;1.20;;;21.20;40.40;;;;;;2318916;58;21112;-77
2022/05/12 12:12:51;;;;;;;3.97;1.20;;;21.20;41.90;;;;;;2318648;58;21064;-77
2022/05/12 12:16:00;;;;;;;2.80;0.95;;;21.10;41.00;;;;;;2316931;57;21068;-76
2022/05/12 12:18:50;;;;;;;4.75;0.95;;;21.10;41.30;;;;;;2318738;58;21060;-75
2022/05/12 12:21:36;;;;;;;3.75;1.30;;;21.00;41.60;;;;;;2319087;58;21097;-76
2022/05/12 12:24:12;;;;;;;3.55;1.15;;;21.00;41.40;;;;;;2319208;58;21131;-76
2022/05/12 12:26:41;;;;;;;3.12;1.05;;;20.90;41.20;;;;;;2318603;58;21049;-76
2022/05/12 12:29:17;;;;;;;3.28;1.17;;;20.90;40.30;;;;;;2319072;58;21048;-76
2022/05/12 12:31:47;;;;;;;4.45;1.00;;;20.80;40.80;;;;;;2318328;58;21036;-76
2022/05/12 12:34:17;;;;;;;3.47;1.35;;;20.70;41.20;;;;;;2316652;58;21124;-75
2022/05/12 12:37:09;;;;;;;3.03;1.02;;;20.70;41.90;;;;;;2317070;58;21049;-76
2022/05/12 12:39:50;;;;;;;4.20;0.98;;;20.70;42.70;;;;;;2317818;58;21068;-76
2022/05/12 12:42:34;;;;;;;5.43;1.85;;;20.80;42.80;;;;;;2317404;58;21053;-76
2022/05/12 12:47:54;;;;;;;2.97;1.10;;;20.90;43.70;;;;;;2354406;57;22125;-77
2022/05/12 12:50:35;;;;;;;3.10;1.12;;;21.00;43.20;;;;;;2358754;56;21062;-77
2022/05/12 12:53:02;;;;;;;3.20;1.20;;;21.20;44.10;;;;;;2374761;56;21634;-77
2022/05/12 12:58:32;;;;;;;3.72;1.25;;;21.50;44.60;;;;;;2374835;56;21519;-76
2022/05/12 13:01:03;;;;;;;6.07;1.35;;;21.60;43.50;;;;;;2373606;56;21039;-77
2022/05/12 13:03:33;;;;;;;2.47;0.85;;;21.70;42.30;;;;;;2627741;52;21404;-78
2022/05/12 13:06:13;;;;;;;3.50;1.15;;;21.70;41.90;;;;;;2374844;56;21138;-78
2022/05/12 13:08:41;;;;;;;2.83;1.10;;;21.70;40.90;;;;;;2374514;56;21034;-76
2022/05/12 13:11:16;;;;;;;2.92;1.10;;;21.60;41.40;;;;;;2374859;56;21035;-77
2022/05/12 13:13:52;;;;;;;2.45;1.10;;;21.60;43.20;;;;;;2627217;52;21035;-77
2022/05/12 13:16:22;;;;;;;3.50;1.20;;;21.60;41.60;;;;;;2373222;56;21532;-77
2022/05/12 13:18:53;;;;;;;3.95;1.20;;;21.70;41.80;;;;;;2373992;56;21034;-77
2022/05/12 13:21:23;;;;;;;3.97;1.10;;;21.80;42.30;;;;;;2628268;52;21039;-77
2022/05/12 13:24:04;;;;;;;3.58;1.25;;;21.80;41.00;;;;;;2374859;56;21178;-77
2022/05/12 13:26:33;;;;;;;6.10;0.98;;;21.70;41.50;;;;;;2374004;56;21047;-77
2022/05/12 13:29:01;;;;;;;6.37;1.00;;;21.60;40.10;;;;;;2373974;56;21086;-77
2022/05/12 13:34:25;;;;;;;3.08;1.02;;;21.50;40.70;;;;;;2299095;58;22563;-79
2022/05/12 13:36:55;;;;;;;1.90;0.80;;;21.40;40.40;;;;;;2291075;58;21058;-79
2022/05/12 13:39:48;;;;;;;8.30;1.15;;;21.30;40.40;;;;;;2526990;54;22182;-76
2022/05/12 13:42:23;;;;;;;5.65;1.42;;;21.20;40.70;;;;;;2558957;54;21125;-79
2022/05/12 13:44:54;;;;;;;3.87;1.00;;;21.10;41.00;;;;;;2558397;54;22226;-78
2022/05/12 13:47:28;;;;;;;7.75;1.15;;;21.00;40.90;;;;;;2317505;58;21043;-77